RESULTATS »

INSCRITS PRESENTATS ACABEN RETIRATS DESQUALIFICATS DIST. TRAM 1 DIST. TRAM 2 DIST. TRAM 3 TEMP. EXT TEMP. AIGUA
127 121 5 1 5 24 3 0 0

CLASSIFICACIÓ

MASCULÍ FEMENÍ CATEGORIA CLUBS (MASCULINA) CLUBS (FEMENINA) INDIVIDUALS GRUPS D'EDAT

CATEGORIA: JNM
LLOCDORSALNOMCLUBCAT.T.META| P.Tram 1 || P.Tram 2 |Km/hTEMPS| P.Tram 3 |PARC_1PARC_2
1 4103ARNAU SERRADESANFERM BRUCCN VIC-ETBJNM01:49:062800:24:595101:06:0321.8001:31:026400:18:040:00:000:00:00
2 4703GERARD JOSEP ALCALDE GASCC.N. PRAT-TRIATLOJNM01:53:248400:28:515601:06:3221.6401:35:236200:18:010:00:000:00:00
3 7004DAVID PIJOAN GUIXLLICENCIA DE DIAJNM02:23:067800:28:3811301:32:3915.5402:01:1710500:21:490:00:000:00:00
CATEGORIA: SUB23M
LLOCDORSALNOMCLUBCAT.T.META| P.Tram 1 || P.Tram 2 |Km/hTEMPS| P.Tram 3 |PARC_1PARC_2
1 3894MARC CASANOVA SOLAC.N. REUS PLOMSSUB23M01:32:25200:22:43200:55:5425.7601:18:37100:13:480:00:000:00:00
2 5890ÈRIC GAY JIMÉNEZCLUB ATLETIC TORELLO - TRSUB23M01:46:012200:24:283901:04:0822.4501:28:364600:17:250:00:000:00:00
3 5893XAVI ROMERO RUIZCLUB TRIATLO SABADELLSUB23M01:52:033700:25:326901:09:5520.6001:35:273100:16:360:00:000:00:00
4 6014JOSEP CASAS CASANOVALLICENCIA DE DIASUB23M01:52:434100:25:416601:08:5120.9201:34:326700:18:110:00:000:00:00
5 1007ENRIC SERRA PRUNESCLUB NATACIO MINORISASUB23M01:55:223400:25:257701:11:3820.1001:37:037000:18:190:00:000:00:00
6 921PAU QUINTANAS PORTCLUB NATACIO BANYOLESSUB23M01:57:507100:27:467801:12:3719.8301:40:234800:17:270:00:000:00:00
7 926AGUSTIN BERTI BLANCOCLUB NATACIO BANYOLESSUB23M02:00:468000:28:456701:09:3420.7001:38:1910800:22:270:00:000:00:00
8 6008JOAN BALIU MASFEECSUB23M02:02:445000:26:439901:18:0918.4301:44:525600:17:520:00:000:00:00
9 715XEVI PASCUET GONFAUSCN VIC-ETBSUB23M02:14:488500:29:0810801:23:3617.2201:52:4410600:22:040:00:000:00:00
CATEGORIA: V1M
LLOCDORSALNOMCLUBCAT.T.META| P.Tram 1 || P.Tram 2 |Km/hTEMPS| P.Tram 3 |PARC_1PARC_2
1 776MARC REAL GARCIAC.E. TRIBIKE CABRILSV1M01:38:002100:24:27600:58:4424.5201:23:11400:14:490:00:000:00:00
2 5967LLUÍS FIGOLS MORALCLUB TRIATLO LLUÇANESV1M01:38:26400:23:38800:59:3724.1501:23:151000:15:110:00:000:00:00
3 6013JAUME REIG PUENTEFEECV1M01:40:191900:24:221201:00:2823.8101:24:501600:15:290:00:000:00:00
4 261ALBERTO JIMENEZ HERNANDEZCLUB MEDINA TRIATLOV1M01:40:291700:24:201501:01:0823.5601:25:28600:15:010:00:000:00:00
5 244JOSEP A. PEREZ MARINC. TRI. GRANOLLERSV1M01:40:371400:24:091601:01:1623.5001:25:251100:15:120:00:000:00:00
6 658ISMAEL AYESTARAN VELAZQUEC.N. TERRASSA-CICLES MOREV1M01:43:453100:25:222501:02:1323.1401:27:352400:16:100:00:000:00:00
7 374DOMINGO ROIG VAZQUEZDISTANCE LA SALLEV1M01:44:052400:24:353401:03:3822.6301:28:132200:15:520:00:000:00:00
8 2808PEDRO J. OLIVEROS OLIVEROC. TRI. GRANOLLERSV1M01:44:412900:25:103001:03:1722.7501:28:272600:16:140:00:000:00:00
9 1069JAVIER SIERRA SILESC.N. MATAROV1M01:45:445500:26:502401:02:0823.1801:28:583700:16:460:00:000:00:00
10 4686FERRAN FRANQUESA SENTIASC.N. VIC-ETBV1M01:45:514700:26:192301:02:0323.2101:28:225000:17:290:00:000:00:00
11 2496VICTOR SANCHO GARRIGACLUB TRIATLÓ LLEIDA V1M01:46:383500:25:283801:04:0222.4901:29:304100:17:080:00:000:00:00
12 709GERMÀ BARROSO I PUJOLINDEPENDENTV1M01:46:423800:25:374001:04:1222.4301:29:493900:16:530:00:000:00:00
13 619OSCAR PUNTI FIESTASC.T. S.J. ABADESSESV1M01:47:046100:27:092201:01:5723.2401:29:065900:17:580:00:000:00:00
14 867SANTI BARRERA MARTTNEZC.N. PRAT-TRIATLOV1M01:48:127400:27:583501:03:4322.6001:31:412900:16:310:00:000:00:00
15 1598FERRAN VINYALS CORNELLACLUB NATACIO MINORISAV1M01:50:047200:27:464801:05:2522.0101:33:114000:16:530:00:000:00:00
16 4502JORDI CUTRINA ILLAMOLACLUB ATLETIC TORELLO - TRV1M01:53:295900:27:026401:08:2121.0701:35:236600:18:060:00:000:00:00
17 1758ANTONIO JIMENEZ ESTRADASOC ATLETICA CORBERAV1M01:54:144800:26:267201:10:0420.5501:36:305300:17:440:00:000:00:00
18 2673OSCAR RAMON IBAÑEZCLUB TRIATLO LLEIDA V1M01:54:329300:29:464301:04:2622.3501:34:129500:20:200:00:000:00:00
19 5774FRANCISCO RAFAEL TRENADO CLUB NATACIO RUBIV1M01:56:207000:27:457301:10:4020.3801:38:255800:17:550:00:000:00:00
20 3997CARLES GARCIA PANTRIGOCLUB TRIATLO L´EIX DE NAVV1M01:58:288200:28:477401:10:5020.3301:39:377900:18:510:00:000:00:00
21 513CESC MAS VIDALCLUB TRIATLO L´EIX DE NAVV1M01:59:389100:29:367101:10:0120.5701:39:379200:20:010:00:000:00:00
22 194DANIEL TUDELA MARTINEZC.T. S.J. ABADESSESV1M02:00:427300:27:538901:14:3319.3201:42:266800:18:160:00:000:00:00
23 6005RAMON PUJOL DANOTFEECV1M02:03:358600:29:129301:15:1619.1301:44:288200:19:070:00:000:00:00
24 5977XAVIER VILALTA ISANTACLUB NATACIO MINORISAV1M02:04:1310300:30:478101:13:0419.7101:43:519600:20:220:00:000:00:00
25 6012JOSE MARIA HERNANDEZ PUERLLICENCIA DE DIAV1M02:13:269500:30:1410601:23:2117.2801:53:359000:19:510:00:000:00:00
26 3237SALVI VILADISTANCE LA SALLEV1M02:15:099700:30:2110501:22:1817.5001:52:3910900:22:300:00:000:00:00
27 1355XAVIER GARCIA TOSCASCLUB TRIATLO L´EIX DE NAVV1M02:18:4910600:31:1011101:25:5816.7501:57:0810300:21:410:00:000:00:00
28 564JUAN BORRELL MARTINCLUB TRIATLO L´EIX DE NAVV1M02:34:1611600:34:5211501:34:1615.2802:09:0811600:25:080:00:000:00:00
29 7003MARC MIRAS NAVARRETELLICENCIA DE DIAV1M02:34:1910900:32:5411901:38:2814.6202:11:2211100:22:570:00:000:00:00
30 6011JOAN BASCO SERRADELLLLICENCIA DE DIAV1M02:35:0511200:34:0111801:37:3714.7502:11:3811300:23:270:00:000:00:00
CATEGORIA: V2M
LLOCDORSALNOMCLUBCAT.T.META| P.Tram 1 || P.Tram 2 |Km/hTEMPS| P.Tram 3 |PARC_1PARC_2
1 2482ALBERT PUYAL MASGORETCLUB MEDINA TRIATLOV2M01:46:214500:26:173601:03:4422.5901:30:012800:16:200:00:000:00:00
2 161LLUÍS AMAT TARDIUSOC ATLETICA CORBERAV2M01:47:106200:27:162901:02:4122.9701:29:574300:17:130:00:000:00:00
3 996SANTI RIBOT TERRICABRASC. TRI. GRANOLLERSV2M01:48:094900:26:394101:04:1522.4101:30:544500:17:150:00:000:00:00
4 5948XAVIER SALA PUJOLC.T. S.J. ABADESSESV2M01:56:227900:28:426301:08:0821.1401:36:508500:19:320:00:000:00:00
5 789JOSE ROQUE RIOS CUADROSC.A. IGUALADAV2M01:59:126800:27:408201:13:0819.6901:40:487200:18:240:00:000:00:00
6 1168MARIANO MENDEZ CABRASCLUB NATACIO MINORISAV2M02:06:569400:30:049701:17:0718.6701:47:118900:19:450:00:000:00:00
7 3182ANTONI ISASI-ISASMENDIDISTANCE LA SALLEV2M02:09:5311700:36:018301:13:2819.6001:49:299800:20:240:00:000:00:00
8 2516JORDI DE LA FUENTE ESCAYOCLUB NATACIO MINORISAV2M02:29:2311800:36:4011001:25:5216.7702:02:3211800:26:510:00:000:00:00
CATEGORIA: SUB23F
LLOCDORSALNOMCLUBCAT.T.META| P.Tram 1 || P.Tram 2 |Km/hTEMPS| P.Tram 3 |PARC_1PARC_2
1 6002AINA CASES ESPUGALLICENCIA DE DIASUB23F02:48:1912100:44:5511401:32:4715.5202:17:4212000:30:370:00:000:00:00
CATEGORIA: V1F
LLOCDORSALNOMCLUBCAT.T.META| P.Tram 1 || P.Tram 2 |Km/hTEMPS| P.Tram 3 |PARC_1PARC_2
1 3558TERESA PONS MUNILLDISTANCE LA SALLEV1F01:55:018300:28:516101:07:5021.2301:36:417100:18:200:00:000:00:00
2 4043MAR PUIG GUALSCLUB NATACIO MINORISAV1F02:10:499800:30:2310401:20:5317.8001:51:168600:19:330:00:000:00:00
3 1884MONICA CORNUDELLA QUINTANC.N. PRAT-TRIATLOV1F02:43:4912000:41:1911201:31:3915.7102:12:5812100:30:510:00:000:00:00
4 1851MARTA SANCHEZ SALINASCLUB TRIATLO L´EIX DE NAVV1F02:54:3411900:37:0812001:51:4612.8802:28:5411700:25:400:00:000:00:00
CATEGORIA: ABM
LLOCDORSALNOMCLUBCAT.T.META| P.Tram 1 || P.Tram 2 |Km/hTEMPS| P.Tram 3 |PARC_1PARC_2
1 3895XAVIER MADRONA VILACLUB TRIATLO LLUÇANESABM01:33:36100:22:41100:55:5025.7901:18:31700:15:050:00:000:00:00
2 424ORIOL BUCH BAUTISTAC.E. TRIBIKE CABRILSABM01:36:17700:23:45400:57:4724.9201:21:32300:14:450:00:000:00:00
3 881RUBÉN LEÓN BLAZQUEZCLUB MEDINA TRIATLOABM01:36:33600:23:44300:57:4324.9501:21:27800:15:060:00:000:00:00
4 3614ROBERTO FIDALGO LOPEZCLUB MEDINA TRIATLOABM01:37:21300:23:12900:59:5224.0501:23:04200:14:170:00:000:00:00
5 3898JOSEP ITO RIUCLUB TRIATLO LLUÇANESABM01:37:34500:23:38500:58:3224.6001:22:101400:15:240:00:000:00:00
6 826OMAR MARTINEZ OSUNACLUB TRIATLO LLUÇANESABM01:39:56800:23:481401:01:0123.6001:24:49900:15:070:00:000:00:00
7 378MARCEL CARRERAS SOLERDISTANCE LA SALLEABM01:40:092000:24:261101:00:1923.8701:24:451500:15:240:00:000:00:00
8 857JAUME FREIXES PUIGCLUB TRI-BUABM01:41:061300:24:071901:01:2823.4301:25:351800:15:310:00:000:00:00
9 2025JORDI UREÑA LARAC.N. TERRASSA-CICLES MOREABM01:41:482700:24:551801:01:2323.4601:26:181700:15:300:00:000:00:00
10 5896SALVADOR GRAN ESTEVECAMBRILS CLUB TRIATLOABM01:42:012300:24:322001:01:3723.3701:26:092100:15:520:00:000:00:00
11 2798FRANCESC MOLAS TARRESCLUB ATLETIC TORELLO - TRABM01:42:131100:23:573101:03:1922.7401:27:16500:14:570:00:000:00:00
12 1641ERNEST PALAU VILACLUB TRIATLO LLUÇANESABM01:42:241600:24:15700:59:0524.3701:23:208100:19:040:00:000:00:00
13 3447FERRAN BALCELLS PICARTC.N. TERRASSA-CICLES MOREABM01:42:293600:25:311301:00:3923.7401:26:102700:16:190:00:000:00:00
14 4589MARC COLLELL ALIERCN VIC-ETBABM01:42:511000:23:543201:03:2422.7101:27:181900:15:330:00:000:00:00
15 937SERGI DURBAU JULIACLUB TRI-BUABM01:43:232600:24:522701:02:3723.0001:27:292300:15:540:00:000:00:00
16 5978JAUME FONT VIRTUSCLUB A.C.E. TRIATLO BOMBEABM01:44:313300:25:242601:02:3423.0201:27:583000:16:330:00:000:00:00
17 3896JORDI FONT CORRIUSCLUB TRIATLO LLUÇANESABM01:44:485400:26:491701:01:2223.4701:28:113400:16:370:00:000:00:00
18 693DAVID LOPEZ RUIZCLUB TRIATLO L´EIX DE NAVABM01:44:494200:25:502101:01:4423.3301:27:344400:17:150:00:000:00:00
19 763JOAQUIM COMAS ROCACLUB ATLETIC TORELLO - TRABM01:45:116300:27:261001:00:1723.8901:27:434900:17:280:00:000:00:00
20 6007ABEL ESTATUET SALMERONFEECABM01:45:221200:24:005201:06:0521.7901:30:051300:15:170:00:000:00:00
21 5909MARC PUIG AMIELCLUB TRI-BUABM01:45:422500:24:424201:04:2022.3801:29:023600:16:400:00:000:00:00
22 1054MARCELO ESTEBAN REYMUNDI C. TRI. GRANOLLERSABM01:46:051800:24:224701:05:0722.1101:29:293200:16:360:00:000:00:00
23 887MARTÍ SEUBA MACIACLUB TRIATLO L´EIX DE NAVABM01:46:223900:25:384601:04:5922.1601:30:372000:15:450:00:000:00:00
24 4429JORDI VIDAL VILASECAC.A. IGUALADAABM01:46:511500:24:135801:07:2621.3501:31:391200:15:120:00:000:00:00
25 1589ENOC NAVARRO VALLESCLUB NATACIO RUBIABM01:47:443000:25:215401:06:1321.7501:31:342500:16:100:00:000:00:00
26 5951OSCAR YANEZ ORPICLUB MEDINA TRIATLOABM01:48:406500:27:302801:02:3822.9901:30:087500:18:320:00:000:00:00
27 5353JOAQUIN CALVO SERRACLUB TRIATLO LLEIDA ABM01:49:124300:25:595501:06:2121.7001:32:203800:16:520:00:000:00:00
28 217RAIMON CORRALES OROBITGINDEPENDENTABM01:49:204000:25:395001:05:5721.8301:31:365200:17:440:00:000:00:00
29 5895MARTÍ FOREST TITOSCLUB TRIBUABM01:49:365300:26:484401:04:4322.2501:31:316500:18:050:00:000:00:00
30 1369JUAN ANTONIO CALERO PASCUCLUB NATACIO RUBIABM01:50:02900:23:496001:07:4921.2301:31:387300:18:240:00:000:00:00
31 2477RAFAEL HIERRO PEREZCLUB NATACIO RUBIABM01:50:156600:27:324501:04:5222.2001:32:245500:17:510:00:000:00:00
32 847JORDI ARTAU PLENACOSTACLUB TRI-BUABM01:50:226700:27:363701:03:5922.5101:31:357800:18:470:00:000:00:00
33 3878ANTONI NICUESA CASTAÑOCLUB FIT GYMABM01:50:316000:27:044901:05:2822.0001:32:326000:17:590:00:000:00:00
34 3906ORIOL PONS BONJORNC.T.S.J. ABADESSESABM01:52:215200:26:465901:07:3321.3201:34:196300:18:020:00:000:00:00
35 5926MARC MAS RABIONETCLUB FIT GYMABM01:52:358100:28:473301:03:2922.6801:32:169400:20:190:00:000:00:00
36 4317CARLOS CARRASCO RODRIGUEC. TRI. GRANOLLERSABM01:52:526900:27:415701:07:2321.3701:35:045400:17:480:00:000:00:00
37 3632CARLES VIANA CASASC.E. SISTRELLSABM01:52:554400:26:096801:09:3820.6801:35:474200:17:080:00:000:00:00
38 5956MARIÀ GÀLVEZ I VALDERRAMACLUB TRIATLO SABADELLABM01:53:027700:28:335301:06:1121.7601:34:446900:18:180:00:000:00:00
39 1780JOAN RAMON PUJOL BANUSCLUB TRIATLO LLEIDA ABM01:56:108800:29:246201:07:5421.2101:37:188000:18:520:00:000:00:00
40 3877ANDREU GARCIA QUINTANILLACLUB FIT GYMABM01:56:193200:25:238001:13:0319.7101:38:265700:17:530:00:000:00:00
41 1065JOAN TANTIÑA HIJANOCN VIC-ETBABM01:56:267500:28:027001:09:5920.5801:38:017400:18:250:00:000:00:00
42 5917DAVID ARAGON HERNAEZC.A. IGUALADAABM01:57:095800:26:587901:12:4519.7901:39:434700:17:260:00:000:00:00
43 5964XAVIER VALERO GONZALEZDISTANCE LA SALLEABM01:57:284600:26:198601:14:3019.3301:40:493500:16:390:00:000:00:00
44 3631DAVID VIANA CASASC.T. S.J. ABADESSESABM01:57:489200:29:426501:08:2621.0401:38:088700:19:400:00:000:00:00
45 4534CARLOS CASTELLANO CARRASCCLUB TRIATLO SABADELLABM01:58:045700:26:539001:14:3419.3101:41:273300:16:370:00:000:00:00
46 3048ISAAC GONZALEZ SANTOSCLUB TRIATLO L´EIX DE NAVABM01:58:305600:26:528501:13:5819.4701:40:505100:17:400:00:000:00:00
47 6004MARC MEDRAN LLONCHLLICENCIA DE DIAABM02:00:215100:26:459101:14:5719.2101:41:427600:18:390:00:000:00:00
48 5440RAÚL SÁNCHEZ GARCÍACAMBRILS CLUB TRIATLOABM02:00:549900:30:317601:11:3820.1001:42:097700:18:450:00:000:00:00
49 3776MARC SERRAT BARCELOCLUB NATACIÓ BANYOLESABM02:03:077600:28:278401:13:4919.5101:42:169900:20:510:00:000:00:00
50 2492LLUIS SALARICH LABORDENADISTANCE LA SALLEABM02:03:509000:29:319201:15:0019.2001:44:318300:19:190:00:000:00:00
51 821DAVID SEGURA CHECAC.A. IGUALADAABM02:04:018900:29:268701:14:3119.3201:43:579300:20:040:00:000:00:00
52 7001PEDRO ARCAS CASAMIANMAYENCOS BRICO-JACA TRIATABM02:05:518700:29:169601:16:5418.7301:46:108800:19:410:00:000:00:00
53 7002ALBERT VILARDELL GRAELLSLLICENCIA DE DIAABM02:05:536400:27:2810201:20:2417.9101:47:526100:18:010:00:000:00:00
54 1029RAMON LUIS GOMEZ PLANASCLUB TRIATLO L´EIX DE NAVABM02:06:3310200:30:439501:16:2118.8601:47:048400:19:290:00:000:00:00
55 1734JORDI CODINA ESCUEROC.E. TRIBIKE CABRILSABM02:06:3811300:34:077501:11:2320.1701:45:3010000:21:080:00:000:00:00
56 6006ALBERT COT DARANASLLICENCIA DE DIAABM02:10:4910100:30:399801:17:2618.6001:48:0511000:22:440:00:000:00:00
57 1783JORDI CARDEÑES CUCURULLSCLUB TRIATLO LLEIDA ABM02:12:1410700:31:3510001:19:1918.1601:50:5410200:21:200:00:000:00:00
58 2443HECTOR SUAREZ CASEROCLUB NATACIO RUBIABM02:14:5210000:30:3510901:23:5417.1601:54:299700:20:230:00:000:00:00
59 6001ALEXANDRE SANCHEZ BAUCELLLLICENCIA DE DIAABM02:15:599600:30:1810701:23:3217.2401:53:5010700:22:090:00:000:00:00
60 4854DAVID LAPEÑA BOUC.N. CASTELLET TRIATLÓABM02:19:2511500:34:0910301:20:5117.8101:55:0011500:24:250:00:000:00:00
61 3351ORIOL MASCARÓ LAZARODISTANCE LA SALLEABM02:33:4611100:33:5111601:36:3314.9102:10:2411200:23:220:00:000:00:00
CATEGORIA: ABF
LLOCDORSALNOMCLUBCAT.T.META| P.Tram 1 || P.Tram 2 |Km/hTEMPS| P.Tram 3 |PARC_1PARC_2
1 1957BARBARA GINER HINTERMAYERC.N. PRAT-TRIATLOABF02:05:3110500:31:068801:14:3319.3201:45:399100:19:520:00:000:00:00
2 3524KATE VALL ROVIRACLUB TRIATLO L´EIX DE NAVABF02:08:2510400:30:579401:16:2018.8601:47:1710100:21:080:00:000:00:00
3 1965OLGA FERNANDEZ-VALLEJO CACLUB NATACIO BANYOLESABF02:14:1210800:32:3910101:19:4518.0601:52:2410400:21:480:00:000:00:00
4 46MARIA NAVIO FLORESC.N. PRAT-TRIATLOABF02:35:1711400:34:0811701:37:2714.7802:11:3511400:23:420:00:000:00:00
5 7005NÚRIA GUBIANAS GRIFÉLLICENCIA DE DIAABF02:53:1311000:33:0712101:52:4412.7702:25:5111900:27:220:00:000:00:00

FEDERACIÓ CATALANA DE TRIATLÓ
SEU CENTRAL I CORRESPONDÈNCIA: Rambla Guipúscoa 23-25 2on-D · 08018 Barcelona · Tel / Fax : 93 307 93 35
ATENCIÓ AL PÚBLIC: Passeig Joan de Borbó, 93 (Club Natació Barcelona) · 08039 Barcelona · Tel / Fax : 93 307 93 32